Time;durP1;ratioP1;P1;durP2;ratioP2;P2;SDS_P1;SDS_P2;PMS_P1;PMS_P2;Temp;Humidity;BMP_temperature;BMP_pressure;BME280_temperature;BME280_humidity;BME280_pressure;Samples;Min_cycle;Max_cycle;Signal;HPM_P1;HPM_P2
2021/09/15 00:02:21;;;;;;;24.98;17.52;;;;;;;11.87;78.19;100631.88;1683584;84;27964;-70
2021/09/15 00:04:48;;;;;;;24.77;18.55;;;;;;;11.85;78.19;100636.82;1680109;83;25617;-70
2021/09/15 00:07:14;;;;;;;23.20;17.23;;;;;;;11.81;78.34;100629.05;1683120;82;25474;-70
2021/09/15 00:09:43;;;;;;;26.17;18.23;;;;;;;11.78;78.37;100631.83;1685365;83;25798;-70
2021/09/15 00:12:09;;;;;;;27.10;18.12;;;;;;;11.76;78.36;100625.10;1678413;83;25822;-70
2021/09/15 00:14:36;;;;;;;27.17;18.02;;;;;;;11.74;78.42;100632.19;1681206;83;27390;-70
2021/09/15 00:17:04;;;;;;;27.25;18.48;;;;;;;11.71;78.62;100630.65;1686155;84;25413;-70
2021/09/15 00:19:30;;;;;;;26.10;19.00;;;;;;;11.69;78.65;100635.02;1686323;84;25638;-70
2021/09/15 00:21:57;;;;;;;24.87;17.45;;;;;;;11.67;78.79;100630.47;1686100;83;26204;-70
2021/09/15 00:24:24;;;;;;;28.42;19.10;;;;;;;11.66;78.83;100631.56;1684468;83;25893;-70
2021/09/15 00:26:52;;;;;;;26.10;17.82;;;;;;;11.65;78.81;100625.12;1678444;83;27355;-70
2021/09/15 00:29:19;;;;;;;29.92;18.62;;;;;;;11.63;78.78;100629.49;1672258;84;26557;-70
2021/09/15 00:31:48;;;;;;;31.37;20.00;;;;;;;11.61;78.73;100633.04;1639701;85;25890;-70
2021/09/15 00:34:15;;;;;;;29.40;18.42;;;;;;;11.59;79.01;100632.55;1640597;85;27755;-70
2021/09/15 00:36:41;;;;;;;25.75;18.85;;;;;;;11.58;79.06;100631.77;1629350;85;25638;-70
2021/09/15 00:39:09;;;;;;;27.13;18.85;;;;;;;11.56;79.03;100633.16;1641458;86;28085;-70
2021/09/15 00:41:36;;;;;;;31.57;19.17;;;;;;;11.56;79.20;100634.52;1640025;85;25838;-70
2021/09/15 00:44:09;;;;;;;30.55;20.20;;;;;;;11.56;79.40;100639.94;1655739;84;25898;-70
2021/09/15 00:46:38;;;;;;;27.70;18.65;;;;;;;11.56;79.85;100633.98;1698496;83;26197;-70
2021/09/15 00:49:07;;;;;;;28.20;18.85;;;;;;;11.56;79.68;100635.34;1693357;83;25799;-70
2021/09/15 00:51:38;;;;;;;29.18;19.35;;;;;;;11.57;79.85;100632.86;1705296;83;27405;-69
2021/09/15 00:54:08;;;;;;;28.92;18.07;;;;;;;11.57;79.77;100637.48;1694074;82;25924;-69
2021/09/15 00:56:36;;;;;;;27.93;18.15;;;;;;;11.56;79.78;100643.47;1705644;83;26435;-69
2021/09/15 00:59:02;;;;;;;28.73;18.82;;;;;;;11.58;79.91;100641.80;1706433;82;25934;-69
2021/09/15 01:01:29;;;;;;;23.02;18.15;;;;;;;11.58;79.97;100646.66;1700379;83;25693;-69
2021/09/15 01:03:57;;;;;;;25.43;18.32;;;;;;;11.58;80.29;100642.59;1700014;83;27313;-69
2021/09/15 01:06:24;;;;;;;24.20;16.95;;;;;;;11.59;80.33;100642.03;1702744;83;26359;-69
2021/09/15 01:08:52;;;;;;;25.48;18.55;;;;;;;11.62;81.49;100640.64;1695499;83;25761;-69
2021/09/15 01:11:19;;;;;;;29.05;18.57;;;;;;;11.70;81.82;100645.33;1663383;83;25761;-69
2021/09/15 01:13:47;;;;;;;30.50;18.32;;;;;;;11.71;81.54;100640.95;1700880;83;25823;-69
2021/09/15 01:16:13;;;;;;;29.05;18.92;;;;;;;11.76;81.79;100643.54;1668563;84;27394;-69
2021/09/15 01:18:40;;;;;;;27.90;19.17;;;;;;;11.77;81.58;100636.99;1708794;83;25635;-69
2021/09/15 01:21:08;;;;;;;29.52;18.62;;;;;;;11.77;80.86;100642.41;1694008;82;25484;-69
2021/09/15 01:23:36;;;;;;;29.55;19.65;;;;;;;11.74;80.66;100640.31;1700411;83;25732;-69
2021/09/15 01:26:04;;;;;;;25.85;18.00;;;;;;;11.73;80.77;100639.27;1707790;83;25817;-69
2021/09/15 01:28:32;;;;;;;27.27;17.48;;;;;;;11.70;80.42;100637.98;1690386;83;27580;-69
2021/09/15 01:30:59;;;;;;;24.95;17.00;;;;;;;11.69;80.21;100642.36;1682428;83;25559;-70
2021/09/15 01:33:26;;;;;;;27.30;17.57;;;;;;;11.66;80.07;100640.25;1700565;83;26003;-69
2021/09/15 01:35:52;;;;;;;23.55;17.70;;;;;;;11.63;79.81;100640.33;1701331;82;25892;-69
2021/09/15 01:38:19;;;;;;;25.65;17.27;;;;;;;11.61;79.97;100639.02;1706447;83;25742;-69
2021/09/15 01:40:46;;;;;;;25.97;17.85;;;;;;;11.58;79.92;100640.45;1706067;83;27334;-69
2021/09/15 01:43:13;;;;;;;26.30;18.20;;;;;;;11.53;79.79;100640.01;1689820;82;25704;-69
2021/09/15 01:45:40;;;;;;;28.65;16.65;;;;;;;11.51;79.96;100642.77;1696766;82;25745;-69
2021/09/15 01:48:07;;;;;;;25.17;18.65;;;;;;;11.49;80.07;100644.98;1704713;83;26101;-69
2021/09/15 01:50:34;;;;;;;26.42;17.10;;;;;;;11.47;80.07;100646.64;1695209;83;25677;-69
2021/09/15 01:53:01;;;;;;;24.00;18.05;;;;;;;11.45;80.07;100641.30;1700651;82;27394;-69
2021/09/15 01:55:30;;;;;;;27.10;17.70;;;;;;;11.44;80.09;100637.80;1664662;82;25640;-69
2021/09/15 01:57:56;;;;;;;28.55;17.80;;;;;;;11.43;80.29;100642.16;1702365;83;25853;-69
2021/09/15 02:00:24;;;;;;;25.52;16.87;;;;;;;11.43;80.42;100643.52;1695086;83;26652;-69
2021/09/15 02:02:52;;;;;;;25.57;17.15;;;;;;;11.40;80.43;100634.88;1688556;83;25683;-69
2021/09/15 02:05:19;;;;;;;29.25;17.27;;;;;;;11.40;80.41;100642.20;1703607;83;27329;-69
2021/09/15 02:07:46;;;;;;;23.22;16.10;;;;;;;11.37;80.28;100637.39;1694637;82;25782;-69
2021/09/15 02:10:13;;;;;;;21.48;14.93;;;;;;;11.37;80.21;100637.39;1698558;83;25483;-69
2021/09/15 02:12:40;;;;;;;22.95;16.60;;;;;;;11.37;80.24;100637.39;1701799;82;25669;-69
2021/09/15 02:15:13;;;;;;;23.27;15.78;;;;;;;11.38;80.31;100640.36;1707092;83;25448;-69
2021/09/15 02:17:41;;;;;;;21.80;16.05;;;;;;;11.38;80.51;100638.45;1706534;83;27312;-69
2021/09/15 02:20:10;;;;;;;21.80;16.35;;;;;;;11.39;80.52;100640.59;1702429;82;25740;-69
2021/09/15 02:22:38;;;;;;;22.80;16.35;;;;;;;11.40;80.62;100640.84;1703733;83;25797;-69
2021/09/15 02:25:08;;;;;;;19.90;15.03;;;;;;;11.42;80.94;100639.19;1685264;83;25826;-69
2021/09/15 02:27:36;;;;;;;21.97;16.23;;;;;;;11.43;80.90;100638.09;1685865;83;25635;-69
2021/09/15 02:30:04;;;;;;;24.72;16.60;;;;;;;11.43;80.98;100635.39;1680737;83;28009;-69
2021/09/15 02:32:30;;;;;;;22.67;15.93;;;;;;;11.43;81.50;100633.47;1681602;82;25861;-70
2021/09/15 02:34:57;;;;;;;27.30;16.87;;;;;;;11.44;81.57;100637.80;1640066;84;25644;-69
2021/09/15 02:37:23;;;;;;;19.57;15.80;;;;;;;11.46;81.63;100638.28;1641128;85;25654;-70
2021/09/15 02:39:50;;;;;;;22.17;16.20;;;;;;;11.47;81.65;100631.74;1704794;83;25626;-70
2021/09/15 02:42:17;;;;;;;21.15;16.02;;;;;;;11.50;81.79;100638.47;1700830;83;28005;-68
2021/09/15 02:44:43;;;;;;;27.67;16.65;;;;;;;11.53;81.68;100637.86;1686482;82;25785;-70
2021/09/15 02:47:10;;;;;;;22.22;15.68;;;;;;;11.53;81.53;100634.59;1697948;82;25770;-70
2021/09/15 02:49:37;;;;;;;23.10;15.68;;;;;;;11.55;81.39;100636.44;1708340;83;25687;-70
2021/09/15 02:52:04;;;;;;;23.15;15.32;;;;;;;11.56;81.34;100633.98;1698449;82;25680;-70
2021/09/15 02:54:32;;;;;;;22.37;15.88;;;;;;;11.56;81.32;100635.34;1698764;83;27928;-70
2021/09/15 02:56:59;;;;;;;19.77;15.38;;;;;;;11.56;81.25;100636.69;1695333;83;25813;-70
2021/09/15 02:59:25;;;;;;;26.02;16.73;;;;;;;11.58;81.24;100629.61;1701889;83;25410;-69
2021/09/15 03:01:53;;;;;;;21.93;15.50;;;;;;;11.58;81.27;100634.47;1692079;83;25628;-69
2021/09/15 03:04:21;;;;;;;21.23;14.87;;;;;;;11.59;81.30;100630.66;1697093;83;25516;-69
2021/09/15 03:06:47;;;;;;;20.35;14.83;;;;;;;11.59;81.30;100626.60;1693748;81;27367;-69
2021/09/15 03:09:14;;;;;;;25.40;15.65;;;;;;;11.59;81.29;100629.31;1690109;83;26346;-69
2021/09/15 03:11:43;;;;;;;22.45;14.95;;;;;;;11.60;81.28;100635.52;1696575;83;25478;-69
2021/09/15 03:14:11;;;;;;;21.20;15.38;;;;;;;11.60;81.43;100632.81;1702541;82;25806;-69
2021/09/15 03:16:38;;;;;;;22.45;14.65;;;;;;;11.62;81.50;100635.22;1700575;82;25623;-69
2021/09/15 03:19:05;;;;;;;24.90;15.00;;;;;;;11.62;81.46;100626.52;1691709;82;27321;-70
2021/09/15 03:21:31;;;;;;;19.60;14.30;;;;;;;11.65;81.58;100627.83;1698530;83;25637;-69
2021/09/15 03:23:58;;;;;;;21.90;15.75;;;;;;;11.66;81.64;100632.12;1689717;83;26157;-69
2021/09/15 03:26:25;;;;;;;24.60;14.60;;;;;;;11.67;81.63;100629.11;1701674;82;27753;-69
2021/09/15 03:28:52;;;;;;;20.80;15.10;;;;;;;11.69;81.72;100626.89;1687759;83;25751;-70
2021/09/15 03:31:19;;;;;;;19.55;13.88;;;;;;;11.73;81.85;100624.36;1687691;82;28212;-70
2021/09/15 03:33:47;;;;;;;22.67;15.20;;;;;;;11.74;81.94;100624.05;1689073;83;25549;-69
2021/09/15 03:36:13;;;;;;;22.67;14.45;;;;;;;11.77;82.15;100621.30;1676883;83;25883;-69
2021/09/15 03:38:40;;;;;;;21.62;15.38;;;;;;;11.80;82.25;100625.28;1682217;83;25780;-69
2021/09/15 03:41:07;;;;;;;22.27;15.20;;;;;;;11.83;82.28;100626.82;1682216;83;25499;-69
2021/09/15 03:43:34;;;;;;;18.27;14.53;;;;;;;11.86;82.44;100627.56;1682530;83;27382;-69
2021/09/15 03:46:01;;;;;;;22.20;15.48;;;;;;;11.89;82.46;100629.66;1703413;82;25998;-69
2021/09/15 03:48:27;;;;;;;22.77;15.40;;;;;;;11.91;82.67;100622.05;1670232;83;25829;-69
2021/09/15 03:50:54;;;;;;;22.77;15.80;;;;;;;11.95;82.59;100628.47;1667455;83;25765;-69
2021/09/15 03:53:20;;;;;;;19.42;15.15;;;;;;;11.99;82.85;100627.28;1685038;82;25607;-69
2021/09/15 03:55:48;;;;;;;20.50;14.75;;;;;;;12.01;83.05;100620.99;1686166;83;27906;-69
2021/09/15 03:58:14;;;;;;;22.15;14.95;;;;;;;12.04;82.88;100623.66;1640312;85;26980;-69
2021/09/15 04:00:42;;;;;;;20.12;14.65;;;;;;;12.07;83.05;100627.89;1636597;86;25737;-69
2021/09/15 04:03:08;;;;;;;21.68;15.58;;;;;;;12.10;83.08;100627.81;1695490;83;25792;-69
2021/09/15 04:05:35;;;;;;;18.02;14.98;;;;;;;12.13;83.08;100627.20;1689036;83;25411;-69
2021/09/15 04:08:02;;;;;;;18.50;15.20;;;;;;;12.15;83.06;100624.41;1700337;83;26570;-69
2021/09/15 04:10:29;;;;;;;22.52;14.93;;;;;;;12.18;83.19;100629.78;1703708;81;25789;-69
2021/09/15 04:12:56;;;;;;;19.95;14.15;;;;;;;12.21;83.07;100625.62;1695718;82;25444;-69
2021/09/15 04:15:23;;;;;;;24.02;15.20;;;;;;;12.23;83.28;100622.86;1701122;83;25673;-69
2021/09/15 04:17:49;;;;;;;20.02;14.47;;;;;;;12.26;83.21;100618.17;1707189;83;25243;-68
2021/09/15 04:20:17;;;;;;;19.10;13.75;;;;;;;12.28;83.15;100617.30;1705967;83;27329;-68
2021/09/15 04:22:44;;;;;;;20.32;14.65;;;;;;;12.30;83.16;100611.00;1694388;82;25798;-68
2021/09/15 04:33:29;;;;;;;19.62;14.53;;;;;;;12.39;83.16;100602.11;1708500;83;27368;-70
2021/09/15 04:35:56;;;;;;;17.80;14.23;;;;;;;12.41;83.40;100600.70;1700099;83;25801;-69
2021/09/15 04:38:22;;;;;;;23.73;15.95;;;;;;;12.41;83.51;100595.80;1679419;83;25624;-69
2021/09/15 04:40:49;;;;;;;21.33;15.60;;;;;;;12.44;83.64;100603.32;1691926;83;25867;-70
2021/09/15 04:43:15;;;;;;;20.60;15.18;;;;;;;12.46;83.67;100603.80;1686864;83;25705;-67
2021/09/15 04:45:42;;;;;;;21.45;15.20;;;;;;;12.46;83.77;100606.52;1682696;83;28175;-67
2021/09/15 04:48:08;;;;;;;21.37;15.58;;;;;;;12.46;83.85;100603.27;1683344;83;25883;-67
2021/09/15 04:50:35;;;;;;;20.90;14.53;;;;;;;12.47;83.93;100603.48;1678984;83;25902;-67
2021/09/15 04:53:02;;;;;;;23.12;15.00;;;;;;;12.47;83.93;100606.20;1660013;84;25982;-69
2021/09/15 04:55:31;;;;;;;21.77;15.90;;;;;;;12.48;84.06;100604.28;1674474;83;25653;-69
2021/09/15 04:57:58;;;;;;;24.47;16.62;;;;;;;12.51;84.13;100603.13;1666526;85;27590;-69
2021/09/15 05:00:26;;;;;;;26.25;16.27;;;;;;;12.51;84.22;100602.30;1667545;85;25781;-69
2021/09/15 05:02:52;;;;;;;23.07;15.72;;;;;;;12.49;84.08;100597.19;1650158;86;25895;-69
2021/09/15 05:05:19;;;;;;;22.25;17.30;;;;;;;12.50;84.09;100601.52;1658993;85;25598;-69
2021/09/15 05:07:46;;;;;;;19.42;15.05;;;;;;;12.50;84.20;100602.87;1665172;85;25450;-69
2021/09/15 05:10:13;;;;;;;20.75;15.80;;;;;;;12.50;84.14;100599.36;1660945;85;28352;-69
2021/09/15 05:12:39;;;;;;;21.05;16.10;;;;;;;12.52;84.29;100601.98;1637230;86;25846;-69
2021/09/15 05:15:09;;;;;;;21.85;15.85;;;;;;;12.54;84.37;100604.39;1649620;85;25766;-69
2021/09/15 05:20:04;;;;;;;24.23;16.48;;;;;;;12.60;84.59;100607.22;1644004;86;25668;-69
2021/09/15 05:22:31;;;;;;;22.13;16.97;;;;;;;12.65;84.71;100615.75;1635970;86;27915;-69
2021/09/15 05:24:58;;;;;;;22.65;16.90;;;;;;;12.66;84.69;100614.08;1644553;85;25424;-69
2021/09/15 05:27:25;;;;;;;23.67;16.65;;;;;;;12.68;84.76;100608.34;1629353;86;25776;-69
2021/09/15 05:29:52;;;;;;;25.62;16.97;;;;;;;12.71;84.82;100613.94;1636160;86;25656;-67
2021/09/15 05:32:18;;;;;;;26.25;16.62;;;;;;;12.75;84.93;100616.81;1645339;86;25832;-68
2021/09/15 05:34:45;;;;;;;24.70;17.82;;;;;;;12.77;84.97;100620.04;1636254;86;27344;-68
2021/09/15 05:37:11;;;;;;;23.27;16.73;;;;;;;12.82;85.18;100624.50;1656778;84;25517;-68
2021/09/15 05:39:38;;;;;;;25.17;17.12;;;;;;;12.87;85.30;100627.88;1670967;84;25618;-67
2021/09/15 05:42:05;;;;;;;25.15;16.93;;;;;;;12.95;85.55;100628.21;1669619;84;25989;-66
2021/09/15 05:44:33;;;;;;;26.20;16.55;;;;;;;13.03;85.80;100624.72;1661730;84;25855;-67
2021/09/15 05:47:00;;;;;;;26.57;18.48;;;;;;;13.11;85.75;100624.47;1660697;83;27394;-67
2021/09/15 05:49:26;;;;;;;28.05;18.27;;;;;;;13.21;85.98;100623.63;1659818;83;25775;-66
2021/09/15 05:51:55;;;;;;;26.23;17.35;;;;;;;13.33;85.93;100622.20;1662072;85;25667;-69
2021/09/15 05:54:22;;;;;;;25.15;18.35;;;;;;;13.47;86.30;100617.97;1670079;84;26284;-67
2021/09/15 05:56:49;;;;;;;27.65;18.40;;;;;;;13.61;86.33;100621.33;1677140;83;25635;-68
2021/09/15 05:59:16;;;;;;;27.87;19.77;;;;;;;13.75;86.54;100621.16;1664970;84;27405;-68
2021/09/15 06:01:43;;;;;;;27.40;20.72;;;;;;;13.90;86.82;100627.44;1654622;84;25910;-68
2021/09/15 06:04:10;;;;;;;27.85;20.75;;;;;;;14.09;87.13;100627.64;1656006;84;25458;-68
2021/09/15 06:06:37;;;;;;;25.92;18.35;;;;;;;14.27;86.85;100627.01;1674030;83;27830;-68
2021/09/15 06:09:04;;;;;;;29.55;19.45;;;;;;;14.40;86.48;100627.36;1680622;84;25619;-68
2021/09/15 06:11:32;;;;;;;27.40;20.02;;;;;;;14.59;86.90;100622.11;1671700;83;27815;-68
2021/09/15 06:14:00;;;;;;;25.75;19.92;;;;;;;14.77;86.69;100619.54;1676398;84;25811;-68
2021/09/15 06:16:27;;;;;;;32.17;20.90;;;;;;;15.00;87.06;100614.60;1728894;82;25653;-69
2021/09/15 06:18:55;;;;;;;28.57;19.98;;;;;;;15.27;87.70;100611.10;1699097;82;25969;-69
2021/09/15 06:21:22;;;;;;;28.25;19.12;;;;;;;15.52;87.36;100610.66;1689613;83;25845;-69
2021/09/15 06:23:51;;;;;;;25.52;18.60;;;;;;;15.81;87.20;100611.70;1642035;85;27460;-68
2021/09/15 06:26:17;;;;;;;24.52;17.85;;;;;;;16.06;86.75;100609.27;1646634;85;25828;-69
2021/09/15 06:28:44;;;;;;;26.27;17.92;;;;;;;16.31;86.33;100609.31;1654859;85;25680;-69
2021/09/15 06:31:11;;;;;;;24.63;17.32;;;;;;;16.55;85.36;100610.43;1719851;82;26373;-69
2021/09/15 06:33:38;;;;;;;22.02;17.20;;;;;;;16.72;84.25;100618.41;1707459;83;25821;-69
2021/09/15 06:36:05;;;;;;;20.80;15.68;;;;;;;16.94;84.10;100614.44;1707693;82;27172;-69
2021/09/15 06:38:32;;;;;;;20.30;15.48;;;;;;;17.20;83.83;100615.16;1703523;82;25491;-67
2021/09/15 06:40:58;;;;;;;22.17;15.70;;;;;;;17.43;82.56;100618.17;1705020;82;25654;-67
2021/09/15 06:43:27;;;;;;;18.77;15.60;;;;;;;17.58;81.67;100613.91;1708404;82;25743;-67
2021/09/15 06:45:53;;;;;;;24.40;16.80;;;;;;;17.69;80.53;100614.42;1715796;82;26077;-68
2021/09/15 06:48:20;;;;;;;20.50;15.93;;;;;;;17.83;80.63;100610.48;1706262;83;27915;-68
2021/09/15 06:50:48;;;;;;;24.02;16.40;;;;;;;18.07;81.00;100615.05;1702754;82;25566;-68
2021/09/15 06:53:15;;;;;;;21.73;16.62;;;;;;;18.34;80.47;100614.75;1711301;83;25795;-68
2021/09/15 06:55:41;;;;;;;19.52;15.80;;;;;;;18.52;79.08;100608.89;1703488;82;26283;-68
2021/09/15 06:58:09;;;;;;;22.32;17.77;;;;;;;18.63;78.69;100603.89;1695038;81;25716;-68
2021/09/15 07:00:36;;;;;;;20.92;16.75;;;;;;;18.90;79.00;100600.58;1688550;81;28050;-68
2021/09/15 07:03:03;;;;;;;23.95;17.52;;;;;;;19.10;77.21;100596.70;1691373;83;25855;-68
2021/09/15 07:05:31;;;;;;;24.12;18.35;;;;;;;19.25;76.92;100596.44;1696723;82;25732;-66
2021/09/15 07:07:58;;;;;;;23.35;17.90;;;;;;;19.44;76.41;100598.38;1688643;84;25845;-65
2021/09/15 07:10:24;;;;;;;21.87;16.50;;;;;;;19.64;76.84;100597.01;1678632;82;26036;-68
2021/09/15 07:12:52;;;;;;;23.12;17.52;;;;;;;19.88;76.00;100593.94;1687952;84;27336;-64
2021/09/15 07:15:20;;;;;;;20.55;15.45;;;;;;;20.08;76.05;100590.57;1688148;84;25860;-63
2021/09/15 07:17:46;;;;;;;21.27;16.07;;;;;;;20.35;75.35;100593.37;1686488;84;25489;-63
2021/09/15 07:20:14;;;;;;;21.48;16.50;;;;;;;20.57;74.84;100587.62;1645035;85;25731;-63
2021/09/15 07:22:41;;;;;;;22.67;16.93;;;;;;;20.77;73.36;100584.78;1643958;85;25893;-64
2021/09/15 07:25:09;;;;;;;21.97;16.27;;;;;;;20.87;73.20;100582.76;1655883;86;28200;-64
2021/09/15 07:27:36;;;;;;;19.87;16.42;;;;;;;21.07;72.87;100581.45;1621475;86;25672;-64
2021/09/15 07:30:04;;;;;;;19.40;15.95;;;;;;;21.30;71.86;100584.70;1643976;86;25499;-64
2021/09/15 07:32:30;;;;;;;22.80;16.40;;;;;;;21.39;70.57;100585.78;1635351;86;25652;-63
2021/09/15 07:34:57;;;;;;;24.75;15.20;;;;;;;21.40;70.23;100587.34;1687534;83;25864;-64
2021/09/15 07:37:25;;;;;;;22.65;15.72;;;;;;;21.52;70.84;100585.77;1688485;82;27896;-64
2021/09/15 07:39:53;;;;;;;19.65;14.87;;;;;;;21.84;71.14;100581.15;1677402;83;25689;-64
2021/09/15 07:42:20;;;;;;;18.25;15.00;;;;;;;22.11;69.15;100585.92;1694144;83;25828;-63
2021/09/15 07:44:47;;;;;;;21.73;15.13;;;;;;;22.19;69.01;100582.06;1701634;83;25895;-63
2021/09/15 07:47:18;;;;;;;17.92;13.68;;;;;;;22.50;69.23;100580.55;1697912;83;25470;-64
2021/09/15 07:49:47;;;;;;;19.12;12.63;;;;;;;22.75;68.34;100575.19;1688494;82;27855;-63
2021/09/15 07:52:15;;;;;;;18.17;14.37;;;;;;;23.21;68.08;100578.78;1704756;83;25677;-63
2021/09/15 07:54:41;;;;;;;15.78;13.00;;;;;;;23.58;66.36;100577.72;1710342;81;25761;-63
2021/09/15 07:57:09;;;;;;;17.52;12.30;;;;;;;23.82;65.91;100578.97;1711232;82;25830;-64
2021/09/15 07:59:36;;;;;;;18.85;14.90;;;;;;;24.15;65.01;100571.48;1709726;82;25724;-64
2021/09/15 08:02:04;;;;;;;15.40;11.60;;;;;;;24.34;63.76;100568.11;1716528;82;27314;-64
2021/09/15 08:04:31;;;;;;;15.85;11.63;;;;;;;24.50;63.61;100560.20;1711549;82;26010;-64
2021/09/15 08:06:57;;;;;;;17.80;11.68;;;;;;;24.79;63.46;100561.52;1707604;81;25428;-64
2021/09/15 08:09:23;;;;;;;15.55;11.05;;;;;;;25.11;62.29;100563.38;1705673;82;26562;-64
2021/09/15 08:11:50;;;;;;;16.17;10.08;;;;;;;25.20;60.35;100555.45;1718972;82;25648;-65
2021/09/15 08:14:17;;;;;;;15.80;10.60;;;;;;;25.43;60.78;100552.78;1712495;81;27418;-66
2021/09/15 08:16:44;;;;;;;13.78;10.15;;;;;;;25.94;59.62;100561.53;1711006;81;25600;-65
2021/09/15 08:19:10;;;;;;;15.75;9.00;;;;;;;26.23;58.96;100562.88;1707455;81;25747;-66
2021/09/15 08:21:37;;;;;;;15.50;10.13;;;;;;;26.57;57.13;100558.61;1714004;82;25812;-65
2021/09/15 08:24:04;;;;;;;17.00;9.33;;;;;;;26.64;55.94;100563.49;1717954;81;25768;-65
2021/09/15 08:26:31;;;;;;;13.00;9.08;;;;;;;26.58;54.91;100571.26;1710384;82;27331;-65
2021/09/15 08:28:57;;;;;;;11.00;9.20;;;;;;;26.55;55.12;100570.72;1708499;82;25524;-65
2021/09/15 08:31:23;;;;;;;13.28;8.85;;;;;;;26.60;54.94;100565.50;1712656;81;26031;-66
2021/09/15 08:33:49;;;;;;;10.85;8.70;;;;;;;26.95;55.80;100564.14;1708255;81;25876;-66
2021/09/15 08:36:16;;;;;;;11.35;8.88;;;;;;;27.27;54.00;100557.40;1710413;82;25627;-66
2021/09/15 08:38:42;;;;;;;12.53;8.75;;;;;;;27.54;53.62;100558.83;1712031;82;29644;-67
2021/09/15 08:41:09;;;;;;;8.85;7.10;;;;;;;27.74;51.90;100561.72;1706878;81;25592;-66
2021/09/15 08:43:37;;;;;;;8.33;6.83;;;;;;;27.84;51.78;100562.73;1710420;81;25842;-66
2021/09/15 08:46:13;;;;;;;11.10;7.70;;;;;;;27.98;51.11;100565.94;1709277;82;25718;-66
2021/09/15 08:48:41;;;;;;;9.55;7.53;;;;;;;28.16;50.41;100565.01;1696615;82;25362;-66
2021/09/15 08:51:13;;;;;;;9.18;7.25;;;;;;;28.35;49.80;100562.70;1696469;82;27369;-66
2021/09/15 08:53:45;;;;;;;11.28;7.72;;;;;;;28.50;49.20;100559.84;1700923;82;25683;-66
2021/09/15 08:56:13;;;;;;;8.45;7.03;;;;;;;28.81;49.25;100563.25;1694177;82;25762;-66
2021/09/15 08:58:45;;;;;;;10.93;7.00;;;;;;;29.08;49.18;100563.68;1694212;83;25679;-66
2021/09/15 09:01:20;;;;;;;9.35;6.95;;;;;;;29.32;47.79;100569.98;1692765;82;25824;-65
2021/09/15 09:03:54;;;;;;;13.55;7.85;;;;;;;29.59;47.94;100580.91;1708076;83;27381;-65
2021/09/15 09:06:24;;;;;;;11.88;7.37;;;;;;;29.55;46.28;100591.34;1704364;82;25518;-66
2021/09/15 09:09:00;;;;;;;9.35;8.10;;;;;;;29.10;45.36;100570.22;1684969;82;25664;-67
2021/09/15 09:11:27;;;;;;;11.97;8.40;;;;;;;28.76;45.21;100577.67;1691773;81;25914;-70
2021/09/15 09:14:04;;;;;;;14.33;9.50;;;;;;;28.19;45.63;100576.68;1692494;82;25431;-68
2021/09/15 09:16:49;;;;;;;12.85;8.18;;;;;;;27.68;47.11;100573.89;1692711;83;27095;-69
2021/09/15 09:19:26;;;;;;;11.95;7.47;;;;;;;27.70;48.03;100572.08;1692707;83;25857;-68
2021/09/15 09:21:52;;;;;;;16.65;7.72;;;;;;;27.51;47.58;100572.94;1704241;83;25406;-68
2021/09/15 09:24:25;;;;;;;11.63;7.87;;;;;;;27.25;48.59;100560.59;1695481;82;26958;-67
2021/09/15 09:27:01;;;;;;;8.98;7.58;;;;;;;27.34;48.78;100567.05;1692985;83;25850;-67
2021/09/15 09:29:35;;;;;;;9.40;7.60;;;;;;;26.94;48.66;100565.36;1692195;83;27329;-68
2021/09/15 09:32:10;;;;;;;15.23;7.83;;;;;;;26.67;48.42;100563.89;1695846;82;25666;-67
2021/09/15 09:34:47;;;;;;;10.95;7.65;;;;;;;26.33;48.62;100558.45;1694089;82;25829;-68
2021/09/15 09:37:20;;;;;;;8.75;7.87;;;;;;;26.28;49.36;100563.05;1688136;82;25664;-69
2021/09/15 09:39:55;;;;;;;12.05;7.28;;;;;;;26.49;49.22;100555.72;1688104;82;25917;-68
2021/09/15 09:42:30;;;;;;;9.55;7.35;;;;;;;26.26;48.76;100556.52;1688772;82;27335;-69
2021/09/15 09:45:11;;;;;;;13.15;7.72;;;;;;;26.21;49.63;100555.58;1703429;83;25476;-69
2021/09/15 09:47:39;;;;;;;11.40;7.35;;;;;;;26.32;48.66;100558.85;1697359;82;25852;-68
2021/09/15 09:50:16;;;;;;;11.08;7.60;;;;;;;26.07;48.43;100562.04;1703513;83;25837;-68
2021/09/15 09:53:01;;;;;;;9.95;7.47;;;;;;;25.75;47.67;100555.34;1698000;82;25592;-67
2021/09/15 09:55:34;;;;;;;8.98;8.08;;;;;;;25.49;49.77;100560.86;1696842;82;27337;-71
2021/09/15 09:58:03;;;;;;;11.30;7.12;;;;;;;25.42;49.10;100556.16;1694532;82;25698;-67
2021/09/15 10:00:31;;;;;;;12.05;8.00;;;;;;;25.44;49.59;100558.52;1694304;82;25546;-68
2021/09/15 10:02:59;;;;;;;10.40;7.70;;;;;;;25.46;48.99;100554.14;1692614;82;26456;-67
2021/09/15 10:05:26;;;;;;;8.03;7.22;;;;;;;25.28;49.92;100548.69;1704752;83;26164;-67
2021/09/15 10:07:53;;;;;;;8.23;7.42;;;;;;;25.56;50.29;100547.55;1699110;82;27299;-67
2021/09/15 10:10:21;;;;;;;9.13;7.40;;;;;;;25.68;49.79;100545.09;1696791;82;25295;-67
2021/09/15 10:12:51;;;;;;;10.93;7.33;;;;;;;25.58;48.72;100542.41;1700247;82;25691;-67
2021/09/15 10:15:17;;;;;;;11.85;7.30;;;;;;;25.36;48.92;100535.61;1696993;83;25864;-66
2021/09/15 10:17:55;;;;;;;11.73;7.92;;;;;;;25.13;49.20;100529.98;1704111;82;25501;-67
2021/09/15 10:20:30;;;;;;;9.60;7.95;;;;;;;24.83;48.39;100538.80;1688673;81;27290;-68
2021/09/15 10:22:57;;;;;;;11.97;7.87;;;;;;;24.68;50.62;100533.13;1691700;82;25567;-67
2021/09/15 10:25:39;;;;;;;10.95;7.55;;;;;;;25.24;52.19;100531.91;1707726;81;25560;-67
2021/09/15 10:28:09;;;;;;;8.65;7.22;;;;;;;26.05;51.97;100531.77;1703183;82;25649;-66
2021/09/15 10:30:48;;;;;;;8.35;7.10;;;;;;;26.63;49.28;100529.26;1689847;83;25897;-67
2021/09/15 10:33:40;;;;;;;7.40;6.42;;;;;;;26.60;48.02;100531.44;1694635;82;27216;-66
2021/09/15 10:36:20;;;;;;;8.13;5.87;;;;;;;26.64;47.69;100527.43;1695923;82;25603;-67
2021/09/15 10:38:56;;;;;;;6.00;5.50;;;;;;;26.72;44.37;100528.76;1694400;82;25680;-67
2021/09/15 10:41:39;;;;;;;7.10;5.83;;;;;;;26.56;45.12;100523.16;1704118;82;26304;-67
2021/09/15 10:44:15;;;;;;;7.20;5.75;;;;;;;26.65;45.51;100522.08;1702986;82;25835;-67
2021/09/15 10:46:45;;;;;;;8.00;5.67;;;;;;;26.86;44.02;100525.02;1695400;82;27473;-64
2021/09/15 10:49:29;;;;;;;8.30;5.72;;;;;;;26.73;43.46;100515.86;1694672;82;25855;-67
2021/09/15 10:52:13;;;;;;;8.88;6.87;;;;;;;26.63;43.32;100516.77;1691798;82;26127;-67
2021/09/15 10:54:51;;;;;;;7.60;6.00;;;;;;;26.53;45.15;100512.88;1699935;82;26297;-66
2021/09/15 10:57:30;;;;;;;8.08;5.40;;;;;;;27.11;46.80;100498.34;1700234;82;25446;-66
2021/09/15 11:00:21;;;;;;;9.28;5.35;;;;;;;27.49;43.92;100498.98;1692960;82;27184;-66
2021/09/15 11:02:49;;;;;;;5.83;5.22;;;;;;;27.58;43.02;100505.38;1690154;82;27256;-66
2021/09/15 11:05:31;;;;;;;13.58;5.92;;;;;;;27.26;42.85;100503.06;1687879;82;25614;-66
2021/09/15 11:07:58;;;;;;;5.87;5.25;;;;;;;27.03;42.89;100496.24;1692173;83;25613;-68
2021/09/15 11:10:37;;;;;;;9.00;5.58;;;;;;;27.03;43.52;100490.69;1713047;82;25671;-68
2021/09/15 11:13:38;;;;;;;5.83;5.33;;;;;;;27.26;42.10;100485.82;1703322;82;27438;-66
2021/09/15 11:16:29;;;;;;;8.73;6.40;;;;;;;27.51;43.14;100488.22;1699818;82;25856;-66
2021/09/15 11:19:07;;;;;;;8.98;5.25;;;;;;;27.95;42.11;100481.39;1702250;82;25429;-67
2021/09/15 11:21:38;;;;;;;6.62;5.58;;;;;;;27.97;41.65;100487.92;1693555;82;25846;-66
2021/09/15 11:24:14;;;;;;;6.97;5.92;;;;;;;27.99;41.87;100486.27;1697491;82;25482;-63
2021/09/15 11:27:00;;;;;;;8.33;6.28;;;;;;;27.93;41.75;100479.03;1695916;82;28197;-64
2021/09/15 11:29:51;;;;;;;7.12;6.42;;;;;;;28.02;41.64;100475.69;1689921;82;26063;-66
2021/09/15 11:32:17;;;;;;;10.70;6.90;;;;;;;28.30;41.90;100475.78;1701182;82;25950;-64